createdAt,value
2018-03-24T00:01:31.078Z,66.10
2018-03-24T00:03:57.731Z,66.00
2018-03-24T00:09:03.515Z,66.10
2018-03-24T00:11:30.155Z,66.00
2018-03-24T00:16:35.172Z,66.00
2018-03-24T00:19:01.803Z,66.00
2018-03-24T00:24:07.482Z,65.90
2018-03-24T00:29:12.834Z,66.00
2018-03-24T00:34:18.555Z,65.90
2018-03-24T00:42:03.508Z,65.80
2018-03-24T00:44:43.253Z,65.80
2018-03-24T00:47:19.099Z,65.80
2018-03-24T00:49:46.141Z,65.80
2018-03-24T00:52:12.796Z,65.80
2018-03-24T01:02:43.477Z,65.80
2018-03-24T01:05:10.486Z,65.80
2018-03-24T01:10:16.280Z,65.70
2018-03-24T01:15:21.755Z,65.60
2018-03-24T01:17:55.138Z,65.60
2018-03-24T01:20:25.472Z,65.60
2018-03-24T01:22:52.111Z,65.60
2018-03-24T01:25:25.087Z,65.60
2018-03-24T01:27:51.747Z,65.60
2018-03-24T01:30:25.226Z,65.60
2018-03-24T01:35:30.303Z,65.50
2018-03-24T01:43:14.367Z,65.50
2018-03-24T01:45:40.982Z,65.50
2018-03-24T01:48:08.033Z,65.40
2018-03-24T01:50:34.709Z,65.40
2018-03-24T01:55:40.346Z,65.40
2018-03-24T01:58:06.959Z,65.40
2018-03-24T02:00:33.589Z,65.40
2018-03-24T02:03:00.216Z,65.30
2018-03-24T02:16:02.814Z,65.20
2018-03-24T02:18:29.431Z,65.20
2018-03-24T02:26:14.296Z,65.10
2018-03-24T02:28:40.909Z,65.10
2018-03-24T02:33:46.646Z,65.10
2018-03-24T02:36:13.278Z,65.00
2018-03-24T02:41:31.242Z,65.00
2018-03-24T02:43:57.866Z,65.00
2018-03-24T02:46:37.307Z,64.90
2018-03-24T02:51:42.890Z,64.90
2018-03-24T02:54:09.516Z,64.90
2018-03-24T02:56:36.142Z,64.90
2018-03-24T03:01:41.967Z,64.90
2018-03-24T03:04:08.693Z,64.90
2018-03-24T03:11:53.070Z,64.80
2018-03-24T03:17:04.569Z,64.80
2018-03-24T03:22:13.718Z,64.70
2018-03-24T03:24:44.125Z,64.70
2018-03-24T03:27:10.778Z,64.60
2018-03-24T03:29:43.340Z,64.70
2018-03-24T03:34:49.169Z,64.60
2018-03-24T03:37:25.174Z,64.60
2018-03-24T03:39:52.232Z,64.70
2018-03-24T03:42:18.846Z,64.60
2018-03-24T03:47:24.536Z,64.60
2018-03-24T03:49:51.166Z,64.50
2018-03-24T03:52:18.196Z,64.60
2018-03-24T03:54:44.953Z,64.50
2018-03-24T03:59:50.561Z,64.50
2018-03-24T04:02:17.248Z,64.50
2018-03-24T04:04:43.886Z,64.50
2018-03-24T04:07:10.501Z,64.40
2018-03-24T04:12:16.499Z,64.40
2018-03-24T04:14:43.140Z,64.40
2018-03-24T04:17:09.750Z,64.40
2018-03-24T04:19:36.840Z,64.40
2018-03-24T04:22:03.457Z,64.30
2018-03-24T04:24:30.091Z,64.30
2018-03-24T04:26:57.330Z,64.30
2018-03-24T04:29:24.427Z,64.30
2018-03-24T04:31:55.582Z,64.30
2018-03-24T04:34:22.204Z,64.30
2018-03-24T04:36:48.831Z,64.20
2018-03-24T04:41:54.956Z,64.30
2018-03-24T04:44:21.986Z,64.20
2018-03-24T04:46:48.691Z,64.20
2018-03-24T04:57:12.113Z,64.10
2018-03-24T04:59:38.730Z,64.10
2018-03-24T05:02:05.374Z,64.20
2018-03-24T05:04:31.984Z,64.10
2018-03-24T05:06:59.018Z,64.10
2018-03-24T05:09:25.647Z,64.10
2018-03-24T05:11:52.268Z,64.10
2018-03-24T05:16:57.359Z,64.00
2018-03-24T05:19:25.596Z,64.10
2018-03-24T05:24:37.763Z,64.00
2018-03-24T05:27:04.785Z,64.00
2018-03-24T05:32:09.829Z,64.00
2018-03-24T05:34:36.499Z,63.90
2018-03-24T05:39:49.245Z,63.80
2018-03-24T05:45:01.362Z,63.90
2018-03-24T05:50:06.823Z,63.80
2018-03-24T05:55:25.226Z,63.80
2018-03-24T06:00:31.256Z,63.80
2018-03-24T06:05:37.338Z,63.70
2018-03-24T06:10:42.389Z,63.70
2018-03-24T06:13:09.017Z,63.70
2018-03-24T06:15:35.659Z,63.70
2018-03-24T06:18:02.318Z,63.70
2018-03-24T06:25:46.604Z,63.70
2018-03-24T06:30:53.789Z,63.60
2018-03-24T06:33:25.898Z,63.70
2018-03-24T06:35:53.090Z,63.60
2018-03-24T06:38:20.163Z,63.70
2018-03-24T06:40:49.774Z,63.70
2018-03-24T06:43:19.650Z,63.60
2018-03-24T06:45:46.934Z,63.60
2018-03-24T06:48:13.783Z,63.60
2018-03-24T06:50:40.396Z,63.60
2018-03-24T06:53:07.461Z,63.60
2018-03-24T06:58:13.538Z,63.80
2018-03-24T07:00:40.565Z,63.80
2018-03-24T07:08:25.563Z,64.00
2018-03-24T07:13:31.955Z,63.80
2018-03-24T07:18:43.917Z,63.60
2018-03-24T07:21:19.367Z,63.60
2018-03-24T07:23:49.858Z,63.50
2018-03-24T07:26:16.538Z,63.30
2018-03-24T07:28:43.130Z,63.30
2018-03-24T07:33:48.475Z,63.10
2018-03-24T07:36:15.136Z,63.20
2018-03-24T07:43:59.819Z,63.20
2018-03-24T07:46:26.876Z,63.10
2018-03-24T07:48:53.590Z,63.10
2018-03-24T07:51:20.656Z,63.00
2018-03-24T07:53:47.412Z,62.90
2018-03-24T07:56:25.443Z,62.80
2018-03-24T07:58:55.705Z,62.90
2018-03-24T08:04:01.686Z,62.60
2018-03-24T08:06:28.344Z,63.00
2018-03-24T08:08:55.374Z,62.70
2018-03-24T08:14:00.948Z,62.60
2018-03-24T08:16:27.587Z,62.60
2018-03-24T08:18:54.229Z,62.90
2018-03-24T08:21:20.962Z,62.80
2018-03-24T08:23:47.694Z,62.70
2018-03-24T08:26:14.335Z,62.70
2018-03-24T08:28:41.066Z,62.50
2018-03-24T08:31:07.735Z,62.70
2018-03-24T08:33:34.445Z,62.60
2018-03-24T08:36:01.519Z,62.70
2018-03-24T08:38:28.233Z,62.70
2018-03-24T08:40:54.843Z,62.70
2018-03-24T08:43:21.481Z,62.60
2018-03-24T08:45:48.570Z,62.70
2018-03-24T08:48:15.203Z,62.50
2018-03-24T08:50:41.814Z,62.60
2018-03-24T08:53:08.916Z,62.50
2018-03-24T08:55:35.522Z,62.70
2018-03-24T08:58:02.272Z,62.60
2018-03-24T09:00:28.896Z,62.50
2018-03-24T09:02:55.969Z,62.70
2018-03-24T09:05:22.978Z,62.70
2018-03-24T09:07:49.740Z,62.20
2018-03-24T09:10:16.370Z,62.60
2018-03-24T09:12:43.020Z,62.50
2018-03-24T09:15:10.052Z,62.60
2018-03-24T09:17:37.830Z,62.20
2018-03-24T09:20:04.448Z,62.50
2018-03-24T09:22:31.083Z,62.40
2018-03-24T09:24:58.105Z,62.20
2018-03-24T09:27:24.759Z,62.20
2018-03-24T09:29:52.148Z,62.20
2018-03-24T09:32:18.765Z,62.20
2018-03-24T09:34:45.408Z,62.10
2018-03-24T09:39:50.935Z,62.30
2018-03-24T09:42:17.915Z,62.10
2018-03-24T09:44:44.540Z,62.10
2018-03-24T09:47:13.414Z,62.00
2018-03-24T09:52:19.388Z,62.10
2018-03-24T09:57:24.495Z,62.20
2018-03-24T10:02:30.264Z,61.90
2018-03-24T10:04:56.888Z,61.80
2018-03-24T10:07:23.982Z,61.80
2018-03-24T10:09:52.232Z,62.10
2018-03-24T10:17:37.739Z,62.00
2018-03-24T10:20:04.774Z,61.90
2018-03-24T10:22:31.820Z,61.80
2018-03-24T10:25:01.625Z,61.80
2018-03-24T10:27:29.264Z,62.20
2018-03-24T10:29:59.722Z,61.90
2018-03-24T10:35:05.823Z,62.00
2018-03-24T10:37:32.503Z,62.20
2018-03-24T10:42:37.799Z,62.60
2018-03-24T10:45:04.536Z,62.80
2018-03-24T10:47:31.265Z,62.90
2018-03-24T10:49:57.877Z,63.10
2018-03-24T10:52:25.913Z,63.10
2018-03-24T10:57:31.027Z,63.20
2018-03-24T11:02:36.828Z,63.30
2018-03-24T11:07:42.347Z,63.40
2018-03-24T11:12:48.664Z,63.40
2018-03-24T11:17:54.650Z,63.50
2018-03-24T11:20:21.271Z,63.50
2018-03-24T11:22:47.886Z,63.50
2018-03-24T11:25:14.547Z,63.50
2018-03-24T11:27:41.162Z,63.50
2018-03-24T11:30:07.816Z,63.50
2018-03-24T11:32:34.840Z,63.40
2018-03-24T11:35:01.882Z,63.40
2018-03-24T11:37:28.962Z,63.30
2018-03-24T11:39:55.600Z,63.30
2018-03-24T11:42:31.415Z,63.20
2018-03-24T11:44:58.065Z,63.20
2018-03-24T11:50:08.407Z,63.30
2018-03-24T11:57:52.446Z,63.10
2018-03-24T12:00:19.068Z,63.00
2018-03-24T12:02:46.096Z,63.00
2018-03-24T12:05:13.182Z,63.00
2018-03-24T12:07:40.302Z,63.00
2018-03-24T12:10:07.345Z,63.00
2018-03-24T12:12:34.409Z,63.10
2018-03-24T12:15:01.880Z,63.10
2018-03-24T12:17:31.823Z,63.10
2018-03-24T12:20:07.451Z,63.20
2018-03-24T12:22:34.585Z,63.30
2018-03-24T12:25:01.655Z,63.10
2018-03-24T12:27:28.775Z,63.10
2018-03-24T12:29:55.410Z,63.00
2018-03-24T12:35:02.025Z,62.70
2018-03-24T12:37:29.046Z,62.60
2018-03-24T12:45:14.003Z,62.20
2018-03-24T12:47:40.624Z,62.10
2018-03-24T12:50:07.363Z,62.10
2018-03-24T12:52:34.490Z,62.00
2018-03-24T12:55:01.232Z,62.00
2018-03-24T12:57:27.979Z,61.90
2018-03-24T12:59:54.608Z,61.90
2018-03-24T13:02:21.637Z,61.90
2018-03-24T13:04:50.020Z,61.80
2018-03-24T13:07:16.666Z,61.80
2018-03-24T13:09:43.318Z,61.80
2018-03-24T13:12:09.961Z,61.70
2018-03-24T13:14:36.687Z,61.70
2018-03-24T13:17:13.460Z,61.60
2018-03-24T13:19:40.086Z,61.50
2018-03-24T13:22:06.744Z,61.30
2018-03-24T13:29:51.870Z,61.10
2018-03-24T13:32:25.643Z,61.20
2018-03-24T13:34:52.257Z,61.10
2018-03-24T13:37:19.289Z,61.00
2018-03-24T13:39:49.952Z,61.00
2018-03-24T13:44:55.890Z,60.80
2018-03-24T13:47:22.566Z,60.70
2018-03-24T13:49:55.655Z,60.60
2018-03-24T13:52:22.282Z,60.60
2018-03-24T13:54:49.033Z,60.50
2018-03-24T13:57:16.045Z,60.50
2018-03-24T13:59:43.063Z,60.50
2018-03-24T14:02:09.711Z,60.50
2018-03-24T14:07:16.340Z,60.40
2018-03-24T14:09:42.976Z,60.40
2018-03-24T14:12:10.010Z,60.40
2018-03-24T14:19:55.345Z,60.20
2018-03-24T14:22:22.095Z,60.40
2018-03-24T14:24:48.733Z,60.40
2018-03-24T14:27:15.491Z,60.20
2018-03-24T14:32:20.893Z,60.20
2018-03-24T14:34:47.563Z,60.20
2018-03-24T14:37:14.318Z,60.20
2018-03-24T14:39:41.046Z,60.20
2018-03-24T14:44:47.293Z,60.20
2018-03-24T14:47:13.911Z,60.00
2018-03-24T14:52:19.902Z,59.90
2018-03-24T14:54:46.623Z,60.00
2018-03-24T14:57:13.229Z,60.00
2018-03-24T14:59:39.857Z,59.90
2018-03-24T15:02:07.188Z,59.90
2018-03-24T15:04:34.321Z,59.90
2018-03-24T15:07:00.994Z,59.90
2018-03-24T15:09:27.625Z,59.90
2018-03-24T15:11:54.269Z,59.80
2018-03-24T15:14:20.902Z,59.70
2018-03-24T15:19:26.073Z,59.70
2018-03-24T15:21:55.979Z,59.80
2018-03-24T15:24:22.611Z,59.70
2018-03-24T15:26:49.242Z,59.80
2018-03-24T15:29:16.293Z,59.90
2018-03-24T15:31:44.073Z,59.80
2018-03-24T15:34:10.711Z,59.80
2018-03-24T15:36:37.365Z,59.70
2018-03-24T15:39:04.019Z,59.70
2018-03-24T15:41:30.650Z,59.60
2018-03-24T15:43:57.265Z,59.50
2018-03-24T15:46:23.993Z,59.60
2018-03-24T15:48:50.631Z,59.50
2018-03-24T15:51:17.255Z,59.20
2018-03-24T15:53:43.929Z,59.20
2018-03-24T15:56:14.023Z,59.20
2018-03-24T16:01:19.889Z,59.00
2018-03-24T16:03:46.538Z,59.00
2018-03-24T16:11:32.075Z,59.00
2018-03-24T16:13:58.785Z,58.90
2018-03-24T16:16:25.441Z,58.80
2018-03-24T16:29:29.395Z,58.60
2018-03-24T16:31:56.421Z,58.90
2018-03-24T16:34:26.071Z,58.80
2018-03-24T16:36:52.846Z,58.70
2018-03-24T16:39:19.603Z,58.70
2018-03-24T16:41:46.341Z,58.50
2018-03-24T16:49:31.541Z,58.40
2018-03-24T16:51:58.662Z,58.20
2018-03-24T16:54:25.275Z,58.10
2018-03-24T16:56:51.941Z,58.20
2018-03-24T17:07:16.238Z,59.20
2018-03-24T17:09:43.257Z,59.50
2018-03-24T17:12:10.330Z,59.60
2018-03-24T17:14:37.970Z,59.70
2018-03-24T17:19:47.649Z,59.80
2018-03-24T17:22:15.743Z,59.80
2018-03-24T17:27:14.357Z,59.90
2018-03-24T17:32:23.390Z,60.00
2018-03-24T17:34:50.147Z,60.10
2018-03-24T17:37:16.807Z,60.10
2018-03-24T17:39:44.581Z,60.20
2018-03-24T17:42:11.730Z,60.40
2018-03-24T17:44:38.415Z,60.50
2018-03-24T17:47:05.060Z,60.60
2018-03-24T17:49:31.818Z,60.70
2018-03-24T17:52:02.101Z,60.80
2018-03-24T17:54:29.181Z,60.70
2018-03-24T17:56:55.794Z,60.80
2018-03-24T17:59:26.020Z,60.80
2018-03-24T18:01:52.670Z,60.80
2018-03-24T18:04:19.781Z,60.90
2018-03-24T18:06:46.474Z,60.90
2018-03-24T18:09:13.597Z,61.00
2018-03-24T18:11:40.780Z,61.10
2018-03-24T18:14:08.006Z,61.20
2018-03-24T18:16:34.676Z,61.30
2018-03-24T18:19:01.377Z,61.30
2018-03-24T18:21:28.038Z,61.30
2018-03-24T18:26:33.101Z,61.40
2018-03-24T18:28:59.824Z,61.50
2018-03-24T18:31:26.513Z,61.50
2018-03-24T18:33:53.133Z,61.60
2018-03-24T18:36:19.844Z,61.60
2018-03-24T18:38:47.175Z,61.60
2018-03-24T18:41:13.835Z,61.60
2018-03-24T18:43:40.454Z,61.60
2018-03-24T18:48:45.921Z,61.70
2018-03-24T18:51:12.572Z,61.70
2018-03-24T18:53:39.190Z,61.70
2018-03-24T18:56:05.830Z,61.70
2018-03-24T18:58:32.883Z,61.80
2018-03-24T19:00:59.933Z,61.80
2018-03-24T19:03:26.970Z,61.80
2018-03-24T19:05:54.020Z,61.90
2018-03-24T19:08:20.802Z,61.90
2018-03-24T19:10:47.524Z,61.90
2018-03-24T19:13:25.823Z,61.90
2018-03-24T19:15:52.475Z,61.90
2018-03-24T19:18:19.112Z,61.90
2018-03-24T19:20:45.737Z,62.00
2018-03-24T19:23:12.482Z,62.10
2018-03-24T19:25:39.211Z,62.10
2018-03-24T19:28:05.966Z,62.10
2018-03-24T19:33:11.192Z,62.10
2018-03-24T19:35:38.322Z,62.10
2018-03-24T19:38:05.016Z,62.10
2018-03-24T19:40:31.642Z,62.10
2018-03-24T19:42:58.421Z,62.10
2018-03-24T19:45:31.783Z,62.10
2018-03-24T19:47:59.251Z,62.10
2018-03-24T19:50:31.810Z,62.10
2018-03-24T19:52:58.436Z,62.10
2018-03-24T19:55:25.080Z,62.10
2018-03-24T19:57:51.716Z,62.10
2018-03-24T20:00:18.351Z,62.10
2018-03-24T20:02:44.987Z,62.10
2018-03-24T20:05:11.638Z,62.10
2018-03-24T20:07:38.268Z,62.10
2018-03-24T20:10:04.926Z,62.10
2018-03-24T20:12:31.659Z,62.10
2018-03-24T20:14:58.291Z,62.10
2018-03-24T20:17:24.981Z,62.10
2018-03-24T20:19:51.614Z,62.10
2018-03-24T20:22:18.303Z,62.10
2018-03-24T20:24:44.952Z,62.10
2018-03-24T20:27:11.883Z,62.10
2018-03-24T20:29:38.533Z,62.00
2018-03-24T20:32:05.146Z,62.00
2018-03-24T20:34:32.170Z,62.00
2018-03-24T20:36:58.863Z,62.00
2018-03-24T20:39:25.609Z,62.00
2018-03-24T20:41:56.094Z,61.90
2018-03-24T20:44:31.992Z,61.90
2018-03-24T20:46:58.725Z,61.90
2018-03-24T20:49:25.451Z,61.90
2018-03-24T20:51:52.076Z,61.90
2018-03-24T20:54:20.270Z,61.90
2018-03-24T20:59:26.098Z,61.80
2018-03-24T21:01:52.771Z,61.80
2018-03-24T21:04:20.146Z,61.80
2018-03-24T21:06:46.771Z,61.80
2018-03-24T21:09:13.560Z,61.70
2018-03-24T21:14:19.348Z,61.60
2018-03-24T21:16:46.414Z,61.70
2018-03-24T21:21:56.181Z,61.60
2018-03-24T21:24:22.875Z,61.60
2018-03-24T21:29:28.380Z,61.60
2018-03-24T21:37:13.335Z,61.50
2018-03-24T21:44:58.238Z,61.40
2018-03-24T21:47:24.877Z,61.40
2018-03-24T21:49:52.035Z,61.40
2018-03-24T21:52:18.724Z,61.40
2018-03-24T21:57:26.156Z,61.30
2018-03-24T21:59:53.051Z,61.30
2018-03-24T22:02:25.846Z,61.30
2018-03-24T22:04:52.590Z,61.30
2018-03-24T22:07:19.234Z,61.30
2018-03-24T22:09:50.196Z,61.20
2018-03-24T22:12:16.911Z,61.20
2018-03-24T22:14:43.536Z,61.20
2018-03-24T22:19:49.529Z,61.10
2018-03-24T22:22:16.171Z,61.20
2018-03-24T22:24:44.228Z,61.10
2018-03-24T22:27:10.854Z,61.10
2018-03-24T22:29:38.214Z,61.10
2018-03-24T22:32:04.848Z,61.10
2018-03-24T22:34:32.197Z,61.10
2018-03-24T22:36:58.834Z,61.00
2018-03-24T22:42:04.197Z,61.00
2018-03-24T22:44:43.857Z,61.00
2018-03-24T22:47:10.589Z,60.90
2018-03-24T22:49:37.243Z,60.90
2018-03-24T22:54:44.169Z,60.90
2018-03-24T22:57:10.856Z,60.90
2018-03-24T22:59:37.478Z,60.90
2018-03-24T23:02:13.920Z,60.80
2018-03-24T23:07:19.275Z,60.80
2018-03-24T23:09:50.167Z,60.80
2018-03-24T23:12:16.897Z,60.80
2018-03-24T23:14:43.516Z,60.80
2018-03-24T23:17:10.586Z,60.70
2018-03-24T23:19:44.140Z,60.70
2018-03-24T23:22:10.833Z,60.70
2018-03-24T23:24:37.464Z,60.70
2018-03-24T23:27:04.085Z,60.70
2018-03-24T23:32:09.155Z,60.60
2018-03-24T23:37:14.913Z,60.70
2018-03-24T23:39:49.867Z,60.60
2018-03-24T23:42:16.598Z,60.60
2018-03-24T23:44:43.251Z,60.60
2018-03-24T23:47:19.913Z,60.60
2018-03-24T23:49:46.667Z,60.60
2018-03-24T23:52:13.382Z,60.50
2018-03-24T23:54:44.338Z,60.50
2018-03-24T23:57:11.069Z,60.50
2018-03-24T23:59:37.696Z,60.50
